Christchurch International Airport
NZCH : now visible

Airfield :











YOU CAN JOIN US ON...

 
LOGIN :

Register | Disclaimer

   EN    FR    IT 

 









Legend :    VFR   Marginal VFR   IFR   Intensive IFR   Very Intensive IFR
Visi :
Ceiling :
>= 8 km
>= 3000ft
5 to 8 km
1000 to 3000 ft
1500m to 5 km
500 to 1000 ft
800 to 1500m
200 to 500 ft
< 800m
< 200 ft
Symbols :   Thunderstorms  Fog  Heavy snow  Heavy precipitations  Wind > 20 kt






- Airport Elevation : 123 ft
- IATA code : CHC


NZCH - Christchurch International

CURRENT METAR :
  • 241800Z AUTO 22005KT 9999 FEW017/// OVC023/// 15/13 Q1020 NOSIG

EXPIRED METARs :
  • 241730Z AUTO 14002KT 9999 FEW016/// OVC024/// 16/13 Q1020 NOSIG
  • 241700Z AUTO 11002KT 9999 OVC021/// 16/13 Q1020 NOSIG
  • 241630Z AUTO 10004KT 9999 OVC021/// 16/13 Q1020 NOSIG
  • 241600Z AUTO 10004KT 9999 OVC020/// 16/13 Q1020 NOSIG
  • 241530Z AUTO 10005KT 9999 OVC020/// 16/13 Q1020 NOSIG

TAF TAF NZCH
Valid from the 24 at 18:00 until the 25 at 18:00 UTC


241704Z 2418/2518 10005KT 9999 BKN020
BECMG 2500/2502 07015KT
BECMG 2510/2512 10005KT
PROB30 2512/2518 BKN012



MET'MAP, your aeronautical weather chart ! - Copyright ORBIFLY December 2007 - Disclaimer

ORBIFLY MET'MAP TEAM :

Programming & Development : Alexandra Zaïnal
Concept & original design : Baudouin d'Aumeries
Assistance for programming : Marc-Olivier Méhu
Technical & hardware support : Manuel Goepfert

Contact : metmap@orbifly.com




SOURCES & CREDITS :

   NOAA       Earth
Advisory